METAR Data
IDs: Format: Raw Decoded Include TAF

Data at: 2154 UTC 02 Aug 2021

KFOT 022130Z AUTO 31012KT 10SM CLR 18/13 A3012 RMK AO1
KFOT 022115Z AUTO 30013KT 10SM FEW085 18/13 A3012 RMK AO1
KFOT 022055Z AUTO 30012KT 10SM FEW085 18/13 A3013 RMK AO1
KFOT 022035Z AUTO 31013KT 10SM FEW110 18/13 A3013 RMK AO1
KFOT 022015Z AUTO 30011KT 10SM CLR 18/13 A3013 RMK AO1
KFOT 021955Z AUTO 31009KT 10SM FEW110 18/13 A3013 RMK AO1
KFOT 021935Z AUTO 30008KT 10SM FEW110 17/13 A3013 RMK AO1
KFOT 021915Z AUTO 32004KT 10SM CLR 17/13 A3014 RMK AO1
KFOT 021855Z AUTO 27004KT 10SM SCT015 15/12 A3014 RMK AO1
KFOT 021835Z AUTO 00000KT 10SM BKN013 15/12 A3014 RMK AO1
KFOT 021815Z AUTO 06003KT 10SM OVC011 14/12 A3015 RMK AO1
KFOT 021755Z AUTO 00000KT 10SM BKN008 OVC013 13/12 A3015 RMK AO1
KFOT 021735Z AUTO 00000KT 10SM OVC008 13/12 A3015 RMK AO1
KFOT 021715Z AUTO 00000KT 10SM OVC008 13/12 A3014 RMK AO1
KFOT 021655Z AUTO 00000KT 6SM OVC006 12/12 A3014 RMK AO1
KFOT 021635Z AUTO 00000KT 10SM OVC006 12/12 A3014 RMK AO1
KFOT 021615Z AUTO 00000KT 10SM OVC006 12/12 A3015 RMK AO1
KFOT 021555Z AUTO 32004KT 10SM OVC006 12/12 A3015 RMK AO1
KFOT 021535Z AUTO 27004KT 10SM OVC006 12/12 A3015 RMK AO1
KFOT 021515Z AUTO 00000KT 9SM OVC004 11/11 A3015 RMK AO1
KFOT 021450Z AUTO 00000KT 2 1/2SM OVC003 11/10 A3014 RMK AO1
KFOT 021435Z AUTO 00000KT 5SM OVC003 11/10 A3014 RMK AO1
KFOT 021415Z AUTO 00000KT 4SM OVC003 10/10 A3014 RMK AO1
KFOT 021355Z AUTO 00000KT 6SM OVC003 10/10 A3013 RMK AO1
KFOT 021335Z AUTO 00000KT 1 3/4SM OVC003 10/10 A3013 RMK AO1
KFOT 021315Z AUTO 00000KT 7SM OVC003 10/10 A3012 RMK AO1
KFOT 021255Z AUTO 00000KT 10SM OVC004 11/10 A3012 RMK AO1
KFOT 021235Z AUTO 26003KT 10SM OVC004 11/10 A3011 RMK AO1
KFOT 021215Z AUTO 00000KT 10SM OVC004 11/10 A3011 RMK AO1
KFOT 021155Z AUTO 00000KT 10SM OVC004 11/10 A3010 RMK AO1
KFOT 021135Z AUTO 00000KT 10SM OVC004 11/10 A3010 RMK AO1
KFOT 021115Z AUTO 00000KT 10SM OVC004 11/11 A3010 RMK AO1
KFOT 021055Z AUTO 00000KT 8SM OVC004 11/11 A3010 RMK AO1
KFOT 021030Z AUTO 00000KT 8SM OVC004 11/11 A3010 RMK AO1
KFOT 021015Z AUTO 00000KT 10SM OVC004 11/11 A3010 RMK AO1
KFOT 020955Z AUTO 28003KT 7SM OVC004 11/11 A3010 RMK AO1
KFOT 020935Z AUTO 00000KT 8SM OVC004 11/11 A3010 RMK AO1
KFOT 020915Z AUTO 29004KT 3SM OVC003 11/11 A3010 RMK AO1
KFOT 020855Z AUTO 29005KT 4SM OVC003 11/11 A3010 RMK AO1
KFOT 020835Z AUTO 31006KT 5SM OVC003 11/11 A3009 RMK AO1
KFOT 020815Z AUTO 28005KT 7SM OVC003 11/11 A3010 RMK AO1
KFOT 020755Z AUTO 26004KT 7SM OVC003 11/11 A3009 RMK AO1
KFOT 020735Z AUTO 00000KT 9SM OVC003 11/11 A3009 RMK AO1
KFOT 020715Z AUTO 00000KT 10SM OVC003 11/11 A3009 RMK AO1
KFOT 020655Z AUTO 00000KT 7SM OVC003 11/11 A3009 RMK AO1
KFOT 020635Z AUTO 00000KT 10SM OVC003 11/11 A3009 RMK AO1
KFOT 020610Z AUTO 00000KT 7SM OVC002 11/11 A3009 RMK AO1
KFOT 020555Z AUTO 29004KT 9SM BKN002 OVC006 11/11 A3009 RMK AO1
KFOT 020535Z AUTO 00000KT 9SM OVC004 11/11 A3009 RMK AO1
KFOT 020515Z AUTO 29005KT 1 1/4SM OVC002 11/11 A3009 RMK AO1
KFOT 020455Z AUTO 29006KT 1/4SM OVC002 11/11 A3009 RMK AO1
KFOT 020435Z AUTO 30007KT 1/4SM OVC002 11/11 A3009 RMK AO1
KFOT 020415Z AUTO 29007KT 1/4SM OVC002 11/11 A3008 RMK AO1
KFOT 020355Z AUTO 29008KT 3SM FEW001 11/11 A3007 RMK AO1
KFOT 020335Z AUTO 29006KT 10SM CLR 12/12 A3006 RMK AO1
KFOT 020315Z AUTO 30008KT 10SM CLR 12/12 A3006 RMK AO1
KFOT 020255Z AUTO 29007KT 10SM CLR 13/13 A3006 RMK AO1
KFOT 020235Z AUTO 29007KT 10SM CLR 14/13 A3006 RMK AO1
KFOT 020215Z AUTO 30007KT 10SM CLR 14/13 A3006 RMK AO1
KFOT 020155Z AUTO 29010KT 10SM CLR 15/13 A3006 RMK AO1
KFOT 020135Z AUTO 30008KT 10SM FEW080 16/13 A3006 RMK AO1
KFOT 020115Z AUTO 30011KT 10SM FEW070 FEW100 FEW120 17/13 A3006 RMK AO1
KFOT 020055Z AUTO 31011KT 10SM FEW100 17/13 A3006 RMK AO1
KFOT 020035Z AUTO 30010KT 10SM FEW100 17/13 A3006 RMK AO1
KFOT 020015Z AUTO 30011KT 10SM FEW070 17/13 A3005 RMK AO1
KFOT 012355Z AUTO 31011KT 10SM FEW075 FEW110 17/13 A3005 RMK AO1
KFOT 012335Z AUTO 30015KT 10SM FEW100 17/13 A3005 RMK AO1
KFOT 012315Z AUTO 30014KT 10SM FEW100 18/13 A3005 RMK AO1
KFOT 012255Z AUTO 29013KT 10SM FEW070 FEW095 18/13 A3006 RMK AO1
KFOT 012235Z AUTO 31012KT 10SM FEW070 FEW085 SCT110 18/13 A3006 RMK AO1
KFOT 012210Z AUTO 31012KT 10SM FEW070 SCT095 19/13 A3006 RMK AO1
KFOT 012155Z AUTO 32013G16KT 10SM FEW070 SCT095 18/13 A3006 RMK AO1
KFOT 012135Z AUTO 31014KT 10SM FEW070 FEW100 18/13 A3006 RMK AO1
KFOT 012115Z AUTO 31014KT 10SM FEW110 19/13 A3006 RMK AO1
KFOT 012055Z AUTO 32013KT 10SM FEW070 SCT100 19/13 A3005 RMK AO1
KFOT 012035Z AUTO 33014KT 10SM FEW070 FEW085 20/13 A3005 RMK AO1
KFOT 012015Z AUTO 31012KT 10SM FEW110 19/13 A3005 RMK AO1
KFOT 011955Z AUTO 32011KT 10SM FEW095 19/14 A3005 RMK AO1
KFOT 011935Z AUTO 31011KT 10SM FEW095 20/14 A3005 RMK AO1
KFOT 011915Z AUTO 31010KT 10SM FEW080 FEW110 19/14 A3005 RMK AO1
KFOT 011855Z AUTO 32010KT 10SM FEW095 19/14 A3006 RMK AO1
KFOT 011835Z AUTO 33010KT 10SM FEW095 19/14 A3006 RMK AO1
KFOT 011815Z AUTO 30007KT 10SM CLR 19/14 A3006 RMK AO1
KFOT 011755Z AUTO 30007KT 10SM CLR 18/14 A3006 RMK AO1
KFOT 011735Z AUTO 32006KT 10SM CLR 17/14 A3005 RMK AO1
KFOT 011715Z AUTO 30005KT 10SM CLR 17/15 A3005 RMK AO1
KFOT 011655Z AUTO 31004KT 10SM FEW004 15/14 A3006 RMK AO1
KFOT 011635Z AUTO 31003KT 10SM OVC005 14/14 A3006 RMK AO1
KFOT 011615Z AUTO 00000KT 10SM OVC004 14/13 A3006 RMK AO1
KFOT 011555Z AUTO 00000KT 10SM OVC004 13/13 A3006 RMK AO1
KFOT 011535Z AUTO 00000KT 10SM BKN003 13/13 A3006 RMK AO1
KFOT 011515Z AUTO 00000KT 1 3/4SM OVC003 12/12 A3005 RMK AO1 VSBY 1V5
KFOT 011455Z AUTO 00000KT 1/4SM OVC002 12/12 A3005 RMK AO1
KFOT 011435Z AUTO 00000KT M1/4SM OVC002 12/12 A3004 RMK AO1
KFOT 011415Z AUTO 00000KT M1/4SM OVC002 12/12 A3004 RMK AO1
KFOT 011355Z AUTO 00000KT M1/4SM OVC002 12/12 A3003 RMK AO1
KFOT 011335Z AUTO 00000KT M1/4SM OVC002 12/12 A3003 RMK AO1
KFOT 011315Z AUTO 00000KT 3/4SM OVC002 12/12 A3003 RMK AO1
KFOT 011255Z AUTO 00000KT 1 1/4SM OVC002 12/12 A3002 RMK AO1
KFOT 011235Z AUTO 00000KT 1 3/4SM OVC002 12/12 A3002 RMK AO1
KFOT 011215Z AUTO 00000KT 3SM OVC003 12/12 A3002 RMK AO1
KFOT 011155Z AUTO 00000KT 5SM OVC003 12/12 A3001 RMK AO1
KFOT 011135Z AUTO 00000KT 5SM OVC003 12/12 A3002 RMK AO1
KFOT 011115Z AUTO 00000KT 7SM OVC003 12/12 A3002 RMK AO1
KFOT 011055Z AUTO 00000KT 10SM OVC003 12/12 A3002 RMK AO1
KFOT 011035Z AUTO 00000KT 9SM OVC003 12/12 A3002 RMK AO1
KFOT 011015Z AUTO 00000KT 10SM OVC003 12/12 A3002 RMK AO1
KFOT 010955Z AUTO 00000KT 10SM OVC002 12/12 A3002 RMK AO1